createdAt,value
2023-02-27T00:00:54.489Z,1.80
2023-02-27T00:03:21.513Z,3.15
2023-02-27T00:05:48.535Z,1.23
2023-02-27T00:08:15.531Z,2.00
2023-02-27T00:10:42.277Z,2.05
2023-02-27T00:13:10.130Z,2.15
2023-02-27T00:15:38.322Z,1.63
2023-02-27T00:18:05.180Z,2.22
2023-02-27T00:20:37.675Z,2.17
2023-02-27T00:23:06.410Z,2.22
2023-02-27T00:25:34.533Z,1.20
2023-02-27T00:28:01.637Z,2.10
2023-02-27T00:30:28.798Z,2.67
2023-02-27T00:32:55.650Z,1.48
2023-02-27T00:35:22.667Z,1.17
2023-02-27T00:37:49.824Z,2.53
2023-02-27T00:40:17.144Z,1.88
2023-02-27T00:42:46.196Z,1.92
2023-02-27T00:45:13.121Z,2.33
2023-02-27T00:47:39.987Z,1.75
2023-02-27T00:50:07.089Z,1.73
2023-02-27T00:52:34.574Z,2.40
2023-02-27T00:55:01.398Z,1.55
2023-02-27T00:57:28.328Z,1.50
2023-02-27T00:59:55.110Z,2.20
2023-02-27T01:02:22.239Z,1.52
2023-02-27T01:04:49.408Z,2.70
2023-02-27T01:07:16.477Z,2.45
2023-02-27T01:09:43.379Z,1.27
2023-02-27T01:12:10.431Z,1.73
2023-02-27T01:14:37.257Z,2.85
2023-02-27T01:17:04.063Z,2.08
2023-02-27T01:19:31.107Z,2.00
2023-02-27T01:21:58.007Z,2.42
2023-02-27T01:24:25.001Z,1.60
2023-02-27T01:26:52.719Z,1.98
2023-02-27T01:29:19.869Z,1.65
2023-02-27T01:31:48.685Z,1.73
2023-02-27T01:34:17.477Z,1.85
2023-02-27T01:36:44.389Z,1.30
2023-02-27T01:39:11.200Z,2.50
2023-02-27T01:41:38.002Z,3.38
2023-02-27T01:44:08.205Z,1.60
2023-02-27T01:46:35.216Z,3.25
2023-02-27T01:49:26.514Z,1.85
2023-02-27T01:52:06.123Z,3.40
2023-02-27T01:54:38.512Z,1.55
2023-02-27T01:57:06.799Z,1.88
2023-02-27T01:59:35.989Z,2.38
2023-02-27T02:02:07.253Z,1.90
2023-02-27T02:04:38.021Z,1.95
2023-02-27T02:07:09.615Z,1.65
2023-02-27T02:09:40.646Z,2.28
2023-02-27T02:12:08.795Z,1.58
2023-02-27T02:14:35.583Z,1.88
2023-02-27T02:17:20.177Z,2.60
2023-02-27T02:19:49.759Z,1.42
2023-02-27T02:22:35.082Z,1.65
2023-02-27T02:25:29.063Z,1.80
2023-02-27T02:28:23.321Z,1.33
2023-02-27T02:31:30.110Z,2.50
2023-02-27T02:34:16.190Z,1.65
2023-02-27T02:37:05.560Z,1.38
2023-02-27T02:39:41.312Z,2.47
2023-02-27T02:42:43.784Z,1.77
2023-02-27T02:45:22.619Z,2.25
2023-02-27T02:48:14.174Z,3.10
2023-02-27T02:51:00.043Z,2.80
2023-02-27T02:53:52.721Z,1.67
2023-02-27T02:56:48.467Z,2.42
2023-02-27T02:59:33.630Z,1.50
2023-02-27T03:02:16.928Z,3.00
2023-02-27T03:04:52.557Z,1.83
2023-02-27T03:07:33.797Z,1.58
2023-02-27T03:10:13.549Z,1.20
2023-02-27T03:12:45.319Z,3.05
2023-02-27T03:15:38.366Z,3.00
2023-02-27T03:18:07.353Z,1.75
2023-02-27T03:20:39.887Z,3.75
2023-02-27T03:23:12.818Z,1.85
2023-02-27T03:25:46.094Z,2.22
2023-02-27T03:28:22.135Z,2.55
2023-02-27T03:31:10.080Z,2.97
2023-02-27T03:33:52.941Z,1.67
2023-02-27T03:36:32.864Z,2.60
2023-02-27T03:39:06.602Z,2.05
2023-02-27T03:41:42.825Z,1.92
2023-02-27T03:44:24.489Z,2.03
2023-02-27T03:46:51.296Z,2.42
2023-02-27T03:49:18.245Z,2.65
2023-02-27T03:51:45.074Z,1.60
2023-02-27T03:54:19.328Z,3.63
2023-02-27T03:56:55.845Z,2.47
2023-02-27T03:59:24.607Z,2.33
2023-02-27T04:01:53.217Z,1.92
2023-02-27T04:04:20.349Z,2.85
2023-02-27T04:07:23.169Z,1.83
2023-02-27T04:10:17.572Z,2.42
2023-02-27T04:13:28.660Z,2.05
2023-02-27T04:16:11.915Z,2.42
2023-02-27T04:19:39.986Z,3.45
2023-02-27T04:22:35.739Z,2.58
2023-02-27T04:25:39.309Z,2.70
2023-02-27T04:28:14.029Z,4.32
2023-02-27T04:30:46.656Z,3.83
2023-02-27T04:33:36.304Z,2.63
2023-02-27T04:36:18.634Z,7.30
2023-02-27T04:38:56.313Z,3.78
2023-02-27T04:41:32.522Z,5.47
2023-02-27T04:44:00.328Z,4.78
2023-02-27T04:46:29.822Z,3.00
2023-02-27T04:49:05.584Z,2.22
2023-02-27T04:51:38.901Z,3.38
2023-02-27T04:54:13.613Z,3.03
2023-02-27T04:57:03.197Z,2.70
2023-02-27T04:59:48.777Z,3.40
2023-02-27T05:02:32.933Z,2.80
2023-02-27T05:05:04.857Z,2.58
2023-02-27T05:07:37.042Z,3.03
2023-02-27T05:10:13.013Z,1.85
2023-02-27T05:13:03.063Z,2.72
2023-02-27T05:15:59.866Z,2.63
2023-02-27T05:18:26.965Z,2.67
2023-02-27T05:21:07.115Z,2.33
2023-02-27T05:23:55.642Z,2.20
2023-02-27T05:26:59.162Z,2.45
2023-02-27T05:29:46.990Z,3.53
2023-02-27T05:32:24.284Z,3.63
2023-02-27T05:35:18.384Z,3.13
2023-02-27T05:37:51.442Z,2.78
2023-02-27T05:40:32.305Z,2.58
2023-02-27T05:43:09.075Z,3.72
2023-02-27T05:45:38.823Z,3.50
2023-02-27T05:48:16.835Z,3.42
2023-02-27T05:50:48.337Z,3.88
2023-02-27T05:53:18.892Z,2.13
2023-02-27T05:55:58.670Z,2.60
2023-02-27T05:58:43.074Z,3.10
2023-02-27T06:01:11.794Z,2.25
2023-02-27T06:03:40.929Z,3.55
2023-02-27T06:06:19.309Z,3.10
2023-02-27T06:08:46.689Z,3.10
2023-02-27T06:11:13.498Z,3.45
2023-02-27T06:13:42.130Z,3.80
2023-02-27T06:16:11.893Z,4.47
2023-02-27T06:18:38.766Z,2.50
2023-02-27T06:21:07.384Z,3.53
2023-02-27T06:23:34.335Z,3.42
2023-02-27T06:26:01.202Z,2.60
2023-02-27T06:28:28.029Z,4.38
2023-02-27T06:30:57.167Z,2.80
2023-02-27T06:33:25.940Z,3.28
2023-02-27T06:35:53.318Z,2.70
2023-02-27T06:38:20.178Z,3.33
2023-02-27T06:40:46.989Z,2.58
2023-02-27T06:43:14.808Z,4.20
2023-02-27T06:45:41.693Z,2.42
2023-02-27T06:48:08.946Z,3.20
2023-02-27T06:50:35.808Z,4.60
2023-02-27T06:53:03.129Z,3.00
2023-02-27T06:55:29.912Z,3.05
2023-02-27T06:57:56.768Z,3.00
2023-02-27T07:00:23.864Z,3.40
2023-02-27T07:02:50.850Z,2.85
2023-02-27T07:05:18.153Z,3.70
2023-02-27T07:07:45.158Z,3.33
2023-02-27T07:10:15.962Z,3.53
2023-02-27T07:12:42.755Z,2.95
2023-02-27T07:15:10.182Z,3.03
2023-02-27T07:17:37.851Z,3.15
2023-02-27T07:20:06.675Z,3.00
2023-02-27T07:22:34.068Z,5.80
2023-02-27T07:25:00.832Z,3.55
2023-02-27T07:27:27.630Z,4.13
2023-02-27T07:29:54.373Z,2.83
2023-02-27T07:32:21.645Z,3.05
2023-02-27T07:34:48.535Z,5.18
2023-02-27T07:37:15.330Z,3.35
2023-02-27T07:39:42.172Z,2.78
2023-02-27T07:42:08.972Z,4.28
2023-02-27T07:44:35.707Z,3.15
2023-02-27T07:47:02.945Z,4.65
2023-02-27T07:49:29.788Z,3.20
2023-02-27T07:51:56.611Z,4.32
2023-02-27T07:54:23.353Z,3.00
2023-02-27T07:56:50.265Z,3.05
2023-02-27T07:59:17.077Z,2.88
2023-02-27T08:01:43.899Z,5.03
2023-02-27T08:04:10.663Z,3.28
2023-02-27T08:06:37.446Z,5.03
2023-02-27T08:09:04.198Z,3.67
2023-02-27T08:11:30.971Z,2.45
2023-02-27T08:14:00.601Z,3.58
2023-02-27T08:16:29.018Z,3.60
2023-02-27T08:18:56.218Z,4.35
2023-02-27T08:21:23.188Z,2.15
2023-02-27T08:23:49.932Z,2.95
2023-02-27T08:26:16.693Z,4.78
2023-02-27T08:28:43.421Z,2.50
2023-02-27T08:31:10.418Z,3.28
2023-02-27T08:33:37.174Z,4.53
2023-02-27T08:36:04.182Z,3.55
2023-02-27T08:38:31.422Z,4.28
2023-02-27T08:40:58.179Z,3.45
2023-02-27T08:43:25.232Z,1.58
2023-02-27T08:45:52.064Z,3.00
2023-02-27T08:48:19.273Z,2.85
2023-02-27T08:50:46.759Z,3.75
2023-02-27T08:53:14.184Z,2.97
2023-02-27T08:55:41.999Z,2.92
2023-02-27T08:58:10.244Z,5.70
2023-02-27T09:00:37.051Z,3.80
2023-02-27T09:03:03.950Z,3.80
2023-02-27T09:05:35.105Z,2.95
2023-02-27T09:08:03.126Z,3.40
2023-02-27T09:10:30.922Z,2.50
2023-02-27T09:12:57.658Z,3.00
2023-02-27T09:15:24.676Z,4.43
2023-02-27T09:17:51.832Z,2.78
2023-02-27T09:20:18.805Z,3.35
2023-02-27T09:22:45.670Z,3.08
2023-02-27T09:25:12.438Z,2.42
2023-02-27T09:27:39.202Z,2.97
2023-02-27T09:30:06.620Z,3.45
2023-02-27T09:32:33.777Z,2.65
2023-02-27T09:35:00.797Z,3.55
2023-02-27T09:37:27.616Z,3.30
2023-02-27T09:39:54.427Z,2.72
2023-02-27T09:42:25.393Z,3.33
2023-02-27T09:44:56.098Z,2.78
2023-02-27T09:47:31.424Z,2.70
2023-02-27T09:50:00.768Z,2.95
2023-02-27T09:52:29.690Z,2.60
2023-02-27T09:54:57.082Z,5.35
2023-02-27T09:57:46.404Z,3.92
2023-02-27T10:00:37.499Z,2.90
2023-02-27T10:03:22.924Z,2.35
2023-02-27T10:06:22.025Z,3.53
2023-02-27T10:09:08.945Z,3.22
2023-02-27T10:11:54.749Z,3.60
2023-02-27T10:14:33.494Z,2.35
2023-02-27T10:17:03.510Z,2.53
2023-02-27T10:19:34.156Z,2.17
2023-02-27T10:22:04.494Z,4.03
2023-02-27T10:24:40.335Z,2.67
2023-02-27T10:27:13.698Z,3.08
2023-02-27T10:29:41.635Z,1.80
2023-02-27T10:32:31.394Z,3.03
2023-02-27T10:35:27.188Z,2.95
2023-02-27T10:37:59.639Z,3.33
2023-02-27T10:40:28.579Z,3.03
2023-02-27T10:42:59.311Z,3.42
2023-02-27T10:45:26.722Z,2.42
2023-02-27T10:47:53.623Z,2.25
2023-02-27T10:50:22.472Z,2.90
2023-02-27T10:52:57.915Z,4.10
2023-02-27T10:55:34.132Z,2.37
2023-02-27T10:58:03.022Z,1.85
2023-02-27T11:00:41.426Z,2.47
2023-02-27T11:03:21.428Z,1.63
2023-02-27T11:06:01.745Z,1.88
2023-02-27T11:08:30.545Z,1.98
2023-02-27T11:11:04.136Z,2.83
2023-02-27T11:13:35.774Z,1.58
2023-02-27T11:16:08.225Z,2.22
2023-02-27T11:18:37.051Z,2.85
2023-02-27T11:21:24.423Z,1.73
2023-02-27T11:23:55.738Z,3.50
2023-02-27T11:26:27.702Z,2.70
2023-02-27T11:29:05.325Z,1.70
2023-02-27T11:31:35.445Z,2.05
2023-02-27T11:34:04.780Z,2.35
2023-02-27T11:36:47.038Z,2.45
2023-02-27T11:39:47.654Z,3.47
2023-02-27T11:42:20.607Z,2.17
2023-02-27T11:44:56.769Z,2.60
2023-02-27T11:47:28.225Z,1.65
2023-02-27T11:50:34.314Z,2.53
2023-02-27T11:53:16.146Z,2.75
2023-02-27T11:55:45.990Z,1.70
2023-02-27T11:58:20.165Z,2.42
2023-02-27T12:00:56.736Z,1.85
2023-02-27T12:04:04.315Z,1.90
2023-02-27T12:06:45.938Z,3.03
2023-02-27T12:09:40.463Z,1.98
2023-02-27T12:12:36.746Z,2.53
2023-02-27T12:15:24.746Z,2.55
2023-02-27T12:18:26.866Z,2.90
2023-02-27T12:20:59.834Z,1.80
2023-02-27T12:23:31.975Z,3.53
2023-02-27T12:26:28.660Z,2.13
2023-02-27T12:29:17.588Z,4.28
2023-02-27T12:31:51.509Z,4.22
2023-02-27T12:34:29.389Z,2.30
2023-02-27T12:37:02.720Z,3.08
2023-02-27T12:39:29.965Z,3.25
2023-02-27T12:42:13.307Z,2.38
2023-02-27T12:45:05.128Z,3.63
2023-02-27T12:47:47.169Z,2.30
2023-02-27T12:50:22.051Z,2.15
2023-02-27T12:53:30.310Z,2.80
2023-02-27T12:56:17.605Z,3.40
2023-02-27T12:58:58.671Z,2.33
2023-02-27T13:02:12.722Z,2.42
2023-02-27T13:04:51.969Z,2.25
2023-02-27T13:07:29.940Z,2.25
2023-02-27T13:10:01.124Z,2.40
2023-02-27T13:12:33.546Z,2.17
2023-02-27T13:15:05.425Z,1.85
2023-02-27T13:17:41.327Z,1.90
2023-02-27T13:20:21.451Z,3.25
2023-02-27T13:23:04.846Z,2.58
2023-02-27T13:25:34.196Z,2.25
2023-02-27T13:28:06.917Z,2.90
2023-02-27T13:30:38.929Z,2.60
2023-02-27T13:33:25.832Z,2.65
2023-02-27T13:36:04.862Z,2.15
2023-02-27T13:38:49.918Z,2.05
2023-02-27T13:41:27.846Z,4.15
2023-02-27T13:43:57.439Z,2.17
2023-02-27T13:46:34.104Z,3.80
2023-02-27T13:49:20.069Z,3.00
2023-02-27T13:51:56.651Z,2.63
2023-02-27T13:54:27.645Z,2.30
2023-02-27T13:57:21.214Z,1.83
2023-02-27T13:59:57.805Z,3.50
2023-02-27T14:02:36.655Z,3.13
2023-02-27T14:05:07.576Z,1.92
2023-02-27T14:07:52.204Z,3.42
2023-02-27T14:10:23.762Z,2.83
2023-02-27T14:12:51.008Z,2.17
2023-02-27T14:15:17.696Z,2.42
2023-02-27T14:17:46.780Z,2.55
2023-02-27T14:20:16.797Z,2.53
2023-02-27T14:23:02.379Z,1.98
2023-02-27T14:25:46.792Z,2.58
2023-02-27T14:28:36.006Z,1.98
2023-02-27T14:31:10.720Z,2.42
2023-02-27T14:33:46.754Z,1.77
2023-02-27T14:36:23.203Z,2.90
2023-02-27T14:38:53.030Z,2.30
2023-02-27T14:41:27.182Z,2.38
2023-02-27T14:43:57.312Z,2.38
2023-02-27T14:46:36.694Z,3.28
2023-02-27T14:49:07.436Z,2.45
2023-02-27T14:51:37.265Z,2.50
2023-02-27T14:54:18.012Z,3.70
2023-02-27T14:57:04.211Z,2.38
2023-02-27T14:59:43.132Z,4.15
2023-02-27T15:02:22.814Z,2.28
2023-02-27T15:05:15.674Z,2.35
2023-02-27T15:07:47.075Z,2.08
2023-02-27T15:10:25.576Z,2.63
2023-02-27T15:12:52.673Z,2.80
2023-02-27T15:15:21.774Z,2.92
2023-02-27T15:17:53.441Z,2.08
2023-02-27T15:20:32.272Z,2.22
2023-02-27T15:23:01.624Z,2.78
2023-02-27T15:25:34.865Z,3.95
2023-02-27T15:28:26.260Z,1.95
2023-02-27T15:30:55.303Z,2.33
2023-02-27T15:33:30.312Z,2.88
2023-02-27T15:35:57.493Z,1.88
2023-02-27T15:38:32.724Z,2.15
2023-02-27T15:41:01.348Z,2.30
2023-02-27T15:43:29.944Z,1.88
2023-02-27T15:45:58.198Z,2.20
2023-02-27T15:48:25.941Z,1.80
2023-02-27T15:50:56.684Z,2.80
2023-02-27T15:53:26.107Z,3.30
2023-02-27T15:55:58.875Z,2.10
2023-02-27T15:58:29.087Z,2.47
2023-02-27T16:01:01.645Z,2.53
2023-02-27T16:03:35.670Z,1.98
2023-02-27T16:06:03.256Z,2.15
2023-02-27T16:08:31.453Z,2.60
2023-02-27T16:10:58.236Z,2.08
2023-02-27T16:13:27.924Z,3.17
2023-02-27T16:16:04.086Z,1.80
2023-02-27T16:18:32.920Z,2.38
2023-02-27T16:21:17.352Z,2.13
2023-02-27T16:23:44.643Z,2.63
2023-02-27T16:26:36.458Z,1.83
2023-02-27T16:29:21.222Z,3.67
2023-02-27T16:31:58.132Z,2.53
2023-02-27T16:34:28.018Z,2.20
2023-02-27T16:37:02.277Z,2.53
2023-02-27T16:39:29.556Z,2.30
2023-02-27T16:41:58.852Z,3.35
2023-02-27T16:44:26.225Z,3.15
2023-02-27T16:46:54.889Z,2.45
2023-02-27T16:49:24.738Z,1.92
2023-02-27T16:51:51.946Z,2.17
2023-02-27T16:54:19.945Z,2.97
2023-02-27T16:56:47.881Z,2.33
2023-02-27T16:59:28.727Z,2.53
2023-02-27T17:01:56.672Z,3.15
2023-02-27T17:04:26.087Z,5.60
2023-02-27T17:06:54.648Z,3.10
2023-02-27T17:09:21.559Z,3.83
2023-02-27T17:11:49.273Z,2.50
2023-02-27T17:14:16.248Z,4.00
2023-02-27T17:16:43.093Z,2.65
2023-02-27T17:19:09.982Z,2.83
2023-02-27T17:21:36.899Z,2.53
2023-02-27T17:24:03.894Z,3.22
2023-02-27T17:26:31.167Z,3.78
2023-02-27T17:28:58.556Z,3.08
2023-02-27T17:31:26.074Z,3.22
2023-02-27T17:33:53.703Z,2.33
2023-02-27T17:36:22.202Z,3.42
2023-02-27T17:38:54.778Z,3.00
2023-02-27T17:41:21.706Z,4.82
2023-02-27T17:43:55.209Z,2.92
2023-02-27T17:46:24.349Z,2.58
2023-02-27T17:48:51.765Z,2.47
2023-02-27T17:51:19.374Z,3.50
2023-02-27T17:53:46.511Z,16.00
2023-02-27T17:56:14.077Z,32.78
2023-02-27T17:58:41.625Z,40.08
2023-02-27T18:01:14.549Z,46.17
2023-02-27T18:03:41.780Z,37.38
2023-02-27T18:06:08.728Z,30.80
2023-02-27T18:08:35.672Z,25.63
2023-02-27T18:11:03.593Z,25.63
2023-02-27T18:13:30.935Z,24.55
2023-02-27T18:15:57.786Z,21.58
2023-02-27T18:18:24.639Z,20.10
2023-02-27T18:21:03.695Z,18.80
2023-02-27T18:23:30.561Z,19.30
2023-02-27T18:25:59.549Z,22.92
2023-02-27T18:28:27.568Z,23.05
2023-02-27T18:30:54.577Z,24.35
2023-02-27T18:33:22.999Z,26.30
2023-02-27T18:35:50.978Z,24.95
2023-02-27T18:38:18.112Z,19.48
2023-02-27T18:40:44.934Z,15.55
2023-02-27T18:43:13.733Z,14.43
2023-02-27T18:45:41.377Z,14.95
2023-02-27T18:48:08.747Z,19.63
2023-02-27T18:50:36.095Z,16.65
2023-02-27T18:53:03.007Z,14.38
2023-02-27T18:55:29.808Z,12.73
2023-02-27T18:57:56.584Z,17.95
2023-02-27T19:00:24.192Z,27.48
2023-02-27T19:02:51.263Z,33.67
2023-02-27T19:05:18.462Z,29.85
2023-02-27T19:07:45.439Z,30.10
2023-02-27T19:10:12.718Z,29.75
2023-02-27T19:12:40.754Z,23.20
2023-02-27T19:15:08.538Z,17.48
2023-02-27T19:17:36.132Z,13.70
2023-02-27T19:20:04.135Z,13.05
2023-02-27T19:22:31.053Z,10.32
2023-02-27T19:24:57.766Z,10.20
2023-02-27T19:27:28.082Z,10.15
2023-02-27T19:29:54.973Z,13.43
2023-02-27T19:32:22.460Z,13.93
2023-02-27T19:34:49.329Z,12.05
2023-02-27T19:37:16.821Z,12.60
2023-02-27T19:39:43.872Z,13.88
2023-02-27T19:42:10.941Z,14.93
2023-02-27T19:44:38.502Z,17.77
2023-02-27T19:47:05.824Z,16.20
2023-02-27T19:49:32.664Z,14.45
2023-02-27T19:51:59.452Z,12.30
2023-02-27T19:54:26.302Z,10.00
2023-02-27T19:56:54.248Z,9.68
2023-02-27T19:59:23.764Z,10.10
2023-02-27T20:01:51.864Z,9.73
2023-02-27T20:04:19.429Z,8.18
2023-02-27T20:06:49.448Z,8.27
2023-02-27T20:09:18.089Z,7.30
2023-02-27T20:11:46.743Z,6.63
2023-02-27T20:14:15.933Z,5.88
2023-02-27T20:16:43.364Z,4.75
2023-02-27T20:19:13.965Z,5.05
2023-02-27T20:21:41.274Z,5.80
2023-02-27T20:24:10.275Z,7.43
2023-02-27T20:26:44.820Z,8.30
2023-02-27T20:29:19.106Z,11.52
2023-02-27T20:31:47.884Z,10.27
2023-02-27T20:34:16.740Z,8.98
2023-02-27T20:36:43.889Z,8.07
2023-02-27T20:39:12.263Z,9.30
2023-02-27T20:41:40.231Z,11.52
2023-02-27T20:44:08.546Z,15.30
2023-02-27T20:46:36.519Z,16.08
2023-02-27T20:49:04.376Z,16.38
2023-02-27T20:51:36.431Z,17.77
2023-02-27T20:54:06.290Z,18.65
2023-02-27T20:56:37.849Z,18.98
2023-02-27T20:59:06.688Z,17.38
2023-02-27T21:01:34.102Z,15.45
2023-02-27T21:04:01.656Z,12.10
2023-02-27T21:06:30.366Z,11.70
2023-02-27T21:08:57.254Z,11.02
2023-02-27T21:11:28.069Z,8.68
2023-02-27T21:13:57.161Z,8.73
2023-02-27T21:16:27.841Z,8.05
2023-02-27T21:18:57.013Z,9.57
2023-02-27T21:21:30.267Z,9.77
2023-02-27T21:23:57.763Z,9.05
2023-02-27T21:26:26.315Z,9.52
2023-02-27T21:28:55.977Z,8.32
2023-02-27T21:31:24.460Z,8.18
2023-02-27T21:33:53.173Z,11.05
2023-02-27T21:36:28.122Z,11.13
2023-02-27T21:39:00.294Z,11.57
2023-02-27T21:41:28.401Z,13.95
2023-02-27T21:44:03.237Z,13.40
2023-02-27T21:46:30.494Z,13.45
2023-02-27T21:48:57.812Z,12.65
2023-02-27T21:51:38.777Z,12.77
2023-02-27T21:54:09.036Z,14.07
2023-02-27T21:56:36.096Z,10.02
2023-02-27T21:59:03.250Z,11.10
2023-02-27T22:01:31.111Z,12.05
2023-02-27T22:03:58.465Z,10.98
2023-02-27T22:06:27.429Z,11.15
2023-02-27T22:08:55.519Z,12.48
2023-02-27T22:11:23.688Z,11.70
2023-02-27T22:13:50.607Z,11.20
2023-02-27T22:16:18.022Z,11.85
2023-02-27T22:18:45.497Z,10.88
2023-02-27T22:21:24.021Z,10.45
2023-02-27T22:23:51.433Z,11.48
2023-02-27T22:26:21.262Z,11.52
2023-02-27T22:28:48.037Z,10.32
2023-02-27T22:31:18.561Z,9.50
2023-02-27T22:33:47.662Z,13.77
2023-02-27T22:36:17.307Z,7.35
2023-02-27T22:38:44.542Z,7.43
2023-02-27T22:41:14.030Z,8.10
2023-02-27T22:43:42.071Z,8.35
2023-02-27T22:46:09.757Z,7.93
2023-02-27T22:48:36.627Z,5.25
2023-02-27T22:51:07.025Z,6.63
2023-02-27T22:53:38.430Z,6.22
2023-02-27T22:56:10.438Z,5.65
2023-02-27T22:58:41.647Z,5.60
2023-02-27T23:01:14.137Z,4.68
2023-02-27T23:03:41.887Z,5.90
2023-02-27T23:06:11.524Z,5.70
2023-02-27T23:08:39.335Z,5.05
2023-02-27T23:11:06.413Z,4.88
2023-02-27T23:13:33.625Z,6.05
2023-02-27T23:16:01.461Z,4.32
2023-02-27T23:18:28.587Z,4.15
2023-02-27T23:20:55.310Z,3.10
2023-02-27T23:23:22.835Z,4.78
2023-02-27T23:25:49.728Z,3.28
2023-02-27T23:28:16.861Z,3.22
2023-02-27T23:30:46.754Z,3.25
2023-02-27T23:33:13.506Z,2.88
2023-02-27T23:35:40.333Z,2.30
2023-02-27T23:38:07.536Z,3.63
2023-02-27T23:40:35.870Z,2.25
2023-02-27T23:43:02.636Z,3.28
2023-02-27T23:45:30.508Z,3.15
2023-02-27T23:47:58.985Z,2.80
2023-02-27T23:50:28.499Z,3.28
2023-02-27T23:52:57.167Z,3.85
2023-02-27T23:55:23.912Z,3.33
2023-02-27T23:57:55.586Z,3.15
